Aslo, Minnesota
Current Conditions -  °F | °C
As of 6:13 PM on Friday 24 Oct 2014 (Local Time) from KMZH Reporting Station
Clear Clear  
Wind Chill: 15°   Ceiling: Unl
Heat Index: 15°   Visibility: 10mi
Dew Point: 10°   Wind: 5mph
Humidity: 72%   Direction: 190°S
Pressure: 29.77"   Gusts: NA
Location:  46.2004°N, 92.675°W
Report Text: KMZH 242313Z AUTO 19004KT 10SM CLR 15/10 A2977 RMK AO2
Loading
Personal Weather Stations






























Interactive Weather Map
Tropical Storm Tracking
New forecast layout! Learn more

10-Day Weather Forecast

Advertisements
Track Severe Weather on mobile